sensor_id;sensor_type;location;lat;lon;timestamp;temperature;humidity
6540;DHT22;50344;51.142;16.892;2024-03-25T00:01:55;23.00;41.20
6540;DHT22;50344;51.142;16.892;2024-03-25T00:04:20;23.00;41.20
6540;DHT22;50344;51.142;16.892;2024-03-25T00:06:48;23.00;41.40
6540;DHT22;50344;51.142;16.892;2024-03-25T00:09:14;23.00;41.40
6540;DHT22;50344;51.142;16.892;2024-03-25T00:11:40;23.00;41.30
6540;DHT22;50344;51.142;16.892;2024-03-25T00:14:05;23.00;41.20
6540;DHT22;50344;51.142;16.892;2024-03-25T00:16:31;23.00;41.30
6540;DHT22;50344;51.142;16.892;2024-03-25T00:18:56;23.00;41.20
6540;DHT22;50344;51.142;16.892;2024-03-25T00:21:22;23.00;41.30
6540;DHT22;50344;51.142;16.892;2024-03-25T00:23:47;23.00;41.20
6540;DHT22;50344;51.142;16.892;2024-03-25T00:26:13;23.00;41.20
6540;DHT22;50344;51.142;16.892;2024-03-25T00:28:38;23.00;41.20
6540;DHT22;50344;51.142;16.892;2024-03-25T00:31:04;23.00;41.10
6540;DHT22;50344;51.142;16.892;2024-03-25T00:33:30;23.00;41.10
6540;DHT22;50344;51.142;16.892;2024-03-25T00:35:55;23.00;41.00
6540;DHT22;50344;51.142;16.892;2024-03-25T00:38:21;23.00;41.10
6540;DHT22;50344;51.142;16.892;2024-03-25T00:40:46;23.00;41.00
6540;DHT22;50344;51.142;16.892;2024-03-25T00:43:12;23.00;41.00
6540;DHT22;50344;51.142;16.892;2024-03-25T00:45:37;23.00;40.80
6540;DHT22;50344;51.142;16.892;2024-03-25T00:48:03;23.00;40.80
6540;DHT22;50344;51.142;16.892;2024-03-25T00:50:29;23.00;40.90
6540;DHT22;50344;51.142;16.892;2024-03-25T00:52:54;23.00;40.80
6540;DHT22;50344;51.142;16.892;2024-03-25T00:55:20;23.00;40.80
6540;DHT22;50344;51.142;16.892;2024-03-25T00:57:46;23.00;40.80
6540;DHT22;50344;51.142;16.892;2024-03-25T01:00:11;23.00;40.80
6540;DHT22;50344;51.142;16.892;2024-03-25T01:02:37;23.00;40.70
6540;DHT22;50344;51.142;16.892;2024-03-25T01:05:03;23.00;40.60
6540;DHT22;50344;51.142;16.892;2024-03-25T01:07:30;23.00;40.60
6540;DHT22;50344;51.142;16.892;2024-03-25T01:09:56;23.00;40.70
6540;DHT22;50344;51.142;16.892;2024-03-25T01:12:21;23.00;40.60
6540;DHT22;50344;51.142;16.892;2024-03-25T01:14:47;23.00;41.40
6540;DHT22;50344;51.142;16.892;2024-03-25T01:17:12;22.90;40.60
6540;DHT22;50344;51.142;16.892;2024-03-25T01:19:38;23.00;40.60
6540;DHT22;50344;51.142;16.892;2024-03-25T01:22:03;23.00;40.50
6540;DHT22;50344;51.142;16.892;2024-03-25T01:24:30;22.90;40.60
6540;DHT22;50344;51.142;16.892;2024-03-25T01:26:55;23.00;40.70
6540;DHT22;50344;51.142;16.892;2024-03-25T01:29:21;23.00;40.70
6540;DHT22;50344;51.142;16.892;2024-03-25T01:31:47;23.00;40.70
6540;DHT22;50344;51.142;16.892;2024-03-25T01:34:12;22.90;40.60
6540;DHT22;50344;51.142;16.892;2024-03-25T01:36:38;22.90;40.70
6540;DHT22;50344;51.142;16.892;2024-03-25T01:39:04;22.90;40.70
6540;DHT22;50344;51.142;16.892;2024-03-25T01:41:30;23.00;40.80
6540;DHT22;50344;51.142;16.892;2024-03-25T01:43:56;23.00;40.80
6540;DHT22;50344;51.142;16.892;2024-03-25T01:46:21;22.90;40.80
6540;DHT22;50344;51.142;16.892;2024-03-25T01:48:47;22.90;40.80
6540;DHT22;50344;51.142;16.892;2024-03-25T01:51:14;22.90;40.80
6540;DHT22;50344;51.142;16.892;2024-03-25T01:53:41;22.90;40.80
6540;DHT22;50344;51.142;16.892;2024-03-25T01:56:07;22.90;40.90
6540;DHT22;50344;51.142;16.892;2024-03-25T01:58:33;22.90;40.90
6540;DHT22;50344;51.142;16.892;2024-03-25T02:00:58;22.90;40.90
6540;DHT22;50344;51.142;16.892;2024-03-25T02:03:26;22.90;40.90
6540;DHT22;50344;51.142;16.892;2024-03-25T02:05:55;22.90;40.90
6540;DHT22;50344;51.142;16.892;2024-03-25T02:08:22;22.90;40.80
6540;DHT22;50344;51.142;16.892;2024-03-25T02:10:48;22.90;40.80
6540;DHT22;50344;51.142;16.892;2024-03-25T02:13:14;22.90;40.80
6540;DHT22;50344;51.142;16.892;2024-03-25T02:15:40;22.90;40.70
6540;DHT22;50344;51.142;16.892;2024-03-25T02:18:06;22.90;40.70
6540;DHT22;50344;51.142;16.892;2024-03-25T02:20:32;22.90;40.70
6540;DHT22;50344;51.142;16.892;2024-03-25T02:22:57;22.90;40.60
6540;DHT22;50344;51.142;16.892;2024-03-25T02:25:23;22.90;40.60
6540;DHT22;50344;51.142;16.892;2024-03-25T02:27:49;22.90;40.70
6540;DHT22;50344;51.142;16.892;2024-03-25T02:30:14;22.90;40.70
6540;DHT22;50344;51.142;16.892;2024-03-25T02:32:40;22.90;40.70
6540;DHT22;50344;51.142;16.892;2024-03-25T02:35:09;22.90;40.70
6540;DHT22;50344;51.142;16.892;2024-03-25T02:37:38;22.90;40.60
6540;DHT22;50344;51.142;16.892;2024-03-25T02:40:04;22.90;40.70
6540;DHT22;50344;51.142;16.892;2024-03-25T02:42:34;22.90;40.60
6540;DHT22;50344;51.142;16.892;2024-03-25T02:45:00;22.90;40.60
6540;DHT22;50344;51.142;16.892;2024-03-25T02:47:25;22.90;40.60
6540;DHT22;50344;51.142;16.892;2024-03-25T02:49:51;22.90;40.60
6540;DHT22;50344;51.142;16.892;2024-03-25T02:52:17;22.80;40.40
6540;DHT22;50344;51.142;16.892;2024-03-25T02:54:43;22.90;40.50
6540;DHT22;50344;51.142;16.892;2024-03-25T02:57:08;22.90;40.50
6540;DHT22;50344;51.142;16.892;2024-03-25T02:59:34;22.90;40.50
6540;DHT22;50344;51.142;16.892;2024-03-25T03:01:59;22.80;40.40
6540;DHT22;50344;51.142;16.892;2024-03-25T03:04:25;22.80;40.30
6540;DHT22;50344;51.142;16.892;2024-03-25T03:06:50;22.80;40.40
6540;DHT22;50344;51.142;16.892;2024-03-25T03:09:16;22.90;40.40
6540;DHT22;50344;51.142;16.892;2024-03-25T03:11:41;22.90;40.50
6540;DHT22;50344;51.142;16.892;2024-03-25T03:14:07;22.80;40.30
6540;DHT22;50344;51.142;16.892;2024-03-25T03:16:32;22.80;40.30
6540;DHT22;50344;51.142;16.892;2024-03-25T03:18:58;22.80;40.30
6540;DHT22;50344;51.142;16.892;2024-03-25T03:21:23;22.80;40.30
6540;DHT22;50344;51.142;16.892;2024-03-25T03:23:49;22.80;40.30
6540;DHT22;50344;51.142;16.892;2024-03-25T03:26:14;22.80;40.30
6540;DHT22;50344;51.142;16.892;2024-03-25T03:28:40;22.80;40.30
6540;DHT22;50344;51.142;16.892;2024-03-25T03:31:06;22.80;40.20
6540;DHT22;50344;51.142;16.892;2024-03-25T03:33:31;22.80;40.30
6540;DHT22;50344;51.142;16.892;2024-03-25T03:35:57;22.80;40.30
6540;DHT22;50344;51.142;16.892;2024-03-25T03:38:22;22.80;40.20
6540;DHT22;50344;51.142;16.892;2024-03-25T03:40:58;22.80;40.20
6540;DHT22;50344;51.142;16.892;2024-03-25T03:43:23;22.80;40.20
6540;DHT22;50344;51.142;16.892;2024-03-25T03:45:49;22.80;40.30
6540;DHT22;50344;51.142;16.892;2024-03-25T03:48:14;22.80;40.30
6540;DHT22;50344;51.142;16.892;2024-03-25T03:50:40;22.80;40.30
6540;DHT22;50344;51.142;16.892;2024-03-25T03:53:05;22.80;40.30
6540;DHT22;50344;51.142;16.892;2024-03-25T03:55:31;22.80;40.30
6540;DHT22;50344;51.142;16.892;2024-03-25T03:57:56;22.80;40.30
6540;DHT22;50344;51.142;16.892;2024-03-25T04:00:22;22.80;40.30
6540;DHT22;50344;51.142;16.892;2024-03-25T04:02:47;22.80;40.20
6540;DHT22;50344;51.142;16.892;2024-03-25T04:05:13;22.80;40.30
6540;DHT22;50344;51.142;16.892;2024-03-25T04:07:38;22.80;40.30
6540;DHT22;50344;51.142;16.892;2024-03-25T04:10:04;22.80;40.30
6540;DHT22;50344;51.142;16.892;2024-03-25T04:12:30;22.80;40.30
6540;DHT22;50344;51.142;16.892;2024-03-25T04:14:55;22.80;40.30
6540;DHT22;50344;51.142;16.892;2024-03-25T04:17:21;22.80;40.30
6540;DHT22;50344;51.142;16.892;2024-03-25T04:19:48;22.80;40.30
6540;DHT22;50344;51.142;16.892;2024-03-25T04:22:13;22.80;40.30
6540;DHT22;50344;51.142;16.892;2024-03-25T04:24:39;22.80;40.30
6540;DHT22;50344;51.142;16.892;2024-03-25T04:27:04;22.80;40.30
6540;DHT22;50344;51.142;16.892;2024-03-25T04:29:30;22.80;40.30
6540;DHT22;50344;51.142;16.892;2024-03-25T04:31:55;22.80;40.20
6540;DHT22;50344;51.142;16.892;2024-03-25T04:34:21;22.80;40.10
6540;DHT22;50344;51.142;16.892;2024-03-25T04:36:48;22.80;40.20
6540;DHT22;50344;51.142;16.892;2024-03-25T04:39:14;22.80;40.20
6540;DHT22;50344;51.142;16.892;2024-03-25T04:41:39;22.80;40.30
6540;DHT22;50344;51.142;16.892;2024-03-25T04:44:06;22.80;40.30
6540;DHT22;50344;51.142;16.892;2024-03-25T04:46:31;22.80;40.20
6540;DHT22;50344;51.142;16.892;2024-03-25T04:48:57;22.80;40.20
6540;DHT22;50344;51.142;16.892;2024-03-25T04:51:22;22.80;40.10
6540;DHT22;50344;51.142;16.892;2024-03-25T04:53:48;22.80;40.10
6540;DHT22;50344;51.142;16.892;2024-03-25T04:56:13;22.80;40.00
6540;DHT22;50344;51.142;16.892;2024-03-25T04:58:39;22.80;39.80
6540;DHT22;50344;51.142;16.892;2024-03-25T05:01:04;22.80;40.60
6540;DHT22;50344;51.142;16.892;2024-03-25T05:03:30;22.80;39.90
6540;DHT22;50344;51.142;16.892;2024-03-25T05:05:55;22.80;39.80
6540;DHT22;50344;51.142;16.892;2024-03-25T05:08:22;22.80;39.70
6540;DHT22;50344;51.142;16.892;2024-03-25T05:10:47;22.80;39.80
6540;DHT22;50344;51.142;16.892;2024-03-25T05:13:13;22.80;40.30
6540;DHT22;50344;51.142;16.892;2024-03-25T05:15:38;22.80;40.50
6540;DHT22;50344;51.142;16.892;2024-03-25T05:18:04;22.80;41.20
6540;DHT22;50344;51.142;16.892;2024-03-25T05:20:29;22.80;41.30
6540;DHT22;50344;51.142;16.892;2024-03-25T05:22:55;22.80;41.30
6540;DHT22;50344;51.142;16.892;2024-03-25T05:25:20;22.80;41.30
6540;DHT22;50344;51.142;16.892;2024-03-25T05:27:49;22.80;41.30
6540;DHT22;50344;51.142;16.892;2024-03-25T05:30:15;22.80;41.30
6540;DHT22;50344;51.142;16.892;2024-03-25T05:32:40;22.80;41.20
6540;DHT22;50344;51.142;16.892;2024-03-25T05:35:06;22.80;41.20
6540;DHT22;50344;51.142;16.892;2024-03-25T05:37:32;22.80;41.10
6540;DHT22;50344;51.142;16.892;2024-03-25T05:39:59;22.80;41.50
6540;DHT22;50344;51.142;16.892;2024-03-25T05:42:24;22.80;41.20
6540;DHT22;50344;51.142;16.892;2024-03-25T05:44:50;22.80;41.40
6540;DHT22;50344;51.142;16.892;2024-03-25T05:47:15;22.80;41.50
6540;DHT22;50344;51.142;16.892;2024-03-25T05:49:41;22.80;41.40
6540;DHT22;50344;51.142;16.892;2024-03-25T05:52:06;22.80;41.90
6540;DHT22;50344;51.142;16.892;2024-03-25T05:54:32;22.90;42.50
6540;DHT22;50344;51.142;16.892;2024-03-25T05:56:58;22.90;42.50
6540;DHT22;50344;51.142;16.892;2024-03-25T05:59:23;22.90;42.40
6540;DHT22;50344;51.142;16.892;2024-03-25T06:01:48;22.90;42.60
6540;DHT22;50344;51.142;16.892;2024-03-25T06:04:14;22.80;42.60
6540;DHT22;50344;51.142;16.892;2024-03-25T06:06:39;22.90;42.90
6540;DHT22;50344;51.142;16.892;2024-03-25T06:09:05;22.80;42.60
6540;DHT22;50344;51.142;16.892;2024-03-25T06:11:30;22.80;42.60
6540;DHT22;50344;51.142;16.892;2024-03-25T06:13:56;22.80;42.90
6540;DHT22;50344;51.142;16.892;2024-03-25T06:16:22;22.80;42.90
6540;DHT22;50344;51.142;16.892;2024-03-25T06:18:47;22.90;43.30
6540;DHT22;50344;51.142;16.892;2024-03-25T06:21:13;22.90;42.90
6540;DHT22;50344;51.142;16.892;2024-03-25T06:23:38;22.90;42.60
6540;DHT22;50344;51.142;16.892;2024-03-25T06:26:04;22.80;42.50
6540;DHT22;50344;51.142;16.892;2024-03-25T06:28:29;22.80;42.50
6540;DHT22;50344;51.142;16.892;2024-03-25T06:30:55;22.80;42.60
6540;DHT22;50344;51.142;16.892;2024-03-25T06:33:39;22.80;42.40
6540;DHT22;50344;51.142;16.892;2024-03-25T06:36:23;22.80;42.50
6540;DHT22;50344;51.142;16.892;2024-03-25T06:38:48;22.80;42.40
6540;DHT22;50344;51.142;16.892;2024-03-25T06:41:14;22.80;42.50
6540;DHT22;50344;51.142;16.892;2024-03-25T06:43:40;22.80;42.50
6540;DHT22;50344;51.142;16.892;2024-03-25T06:46:06;22.80;42.30
6540;DHT22;50344;51.142;16.892;2024-03-25T06:48:34;22.80;42.30
6540;DHT22;50344;51.142;16.892;2024-03-25T06:51:00;22.80;42.30
6540;DHT22;50344;51.142;16.892;2024-03-25T06:53:28;22.80;42.30
6540;DHT22;50344;51.142;16.892;2024-03-25T06:55:57;22.80;42.30
6540;DHT22;50344;51.142;16.892;2024-03-25T06:58:23;22.80;42.20
6540;DHT22;50344;51.142;16.892;2024-03-25T07:00:49;22.70;42.10
6540;DHT22;50344;51.142;16.892;2024-03-25T07:03:15;22.70;42.10
6540;DHT22;50344;51.142;16.892;2024-03-25T07:05:41;22.70;42.00
6540;DHT22;50344;51.142;16.892;2024-03-25T07:08:06;22.70;41.90
6540;DHT22;50344;51.142;16.892;2024-03-25T07:10:32;22.70;41.90
6540;DHT22;50344;51.142;16.892;2024-03-25T07:12:57;22.70;41.90
6540;DHT22;50344;51.142;16.892;2024-03-25T07:15:23;22.70;41.90
6540;DHT22;50344;51.142;16.892;2024-03-25T07:17:48;22.70;41.80
6540;DHT22;50344;51.142;16.892;2024-03-25T07:20:14;22.60;41.60
6540;DHT22;50344;51.142;16.892;2024-03-25T07:22:39;22.70;41.60
6540;DHT22;50344;51.142;16.892;2024-03-25T07:25:05;22.70;41.60
6540;DHT22;50344;51.142;16.892;2024-03-25T07:27:31;22.70;41.60
6540;DHT22;50344;51.142;16.892;2024-03-25T07:29:56;22.70;41.40
6540;DHT22;50344;51.142;16.892;2024-03-25T07:32:22;22.70;41.40
6540;DHT22;50344;51.142;16.892;2024-03-25T07:34:47;22.70;41.30
6540;DHT22;50344;51.142;16.892;2024-03-25T07:37:13;22.70;41.20
6540;DHT22;50344;51.142;16.892;2024-03-25T07:39:38;22.70;41.20
6540;DHT22;50344;51.142;16.892;2024-03-25T07:42:04;22.70;41.20
6540;DHT22;50344;51.142;16.892;2024-03-25T07:44:29;22.70;41.10
6540;DHT22;50344;51.142;16.892;2024-03-25T07:46:55;22.60;41.00
6540;DHT22;50344;51.142;16.892;2024-03-25T07:49:20;22.60;40.90
6540;DHT22;50344;51.142;16.892;2024-03-25T07:51:46;22.70;41.00
6540;DHT22;50344;51.142;16.892;2024-03-25T07:54:12;22.60;40.80
6540;DHT22;50344;51.142;16.892;2024-03-25T07:56:42;22.60;40.70
6540;DHT22;50344;51.142;16.892;2024-03-25T07:59:07;22.70;40.70
6540;DHT22;50344;51.142;16.892;2024-03-25T08:01:33;22.70;40.70
6540;DHT22;50344;51.142;16.892;2024-03-25T08:03:58;22.60;40.60
6540;DHT22;50344;51.142;16.892;2024-03-25T08:06:24;22.60;40.50
6540;DHT22;50344;51.142;16.892;2024-03-25T08:08:49;22.60;40.50
6540;DHT22;50344;51.142;16.892;2024-03-25T08:11:15;22.60;40.40
6540;DHT22;50344;51.142;16.892;2024-03-25T08:13:40;22.60;40.40
6540;DHT22;50344;51.142;16.892;2024-03-25T08:16:06;22.60;40.40
6540;DHT22;50344;51.142;16.892;2024-03-25T08:18:31;22.60;40.30
6540;DHT22;50344;51.142;16.892;2024-03-25T08:20:57;22.60;40.30
6540;DHT22;50344;51.142;16.892;2024-03-25T08:23:23;22.60;40.20
6540;DHT22;50344;51.142;16.892;2024-03-25T08:25:48;22.60;40.10
6540;DHT22;50344;51.142;16.892;2024-03-25T08:28:14;22.60;40.10
6540;DHT22;50344;51.142;16.892;2024-03-25T08:30:40;22.60;40.20
6540;DHT22;50344;51.142;16.892;2024-03-25T08:33:05;22.60;40.10
6540;DHT22;50344;51.142;16.892;2024-03-25T08:35:31;22.60;40.10
6540;DHT22;50344;51.142;16.892;2024-03-25T08:37:56;22.60;40.00
6540;DHT22;50344;51.142;16.892;2024-03-25T08:40:22;22.60;40.10
6540;DHT22;50344;51.142;16.892;2024-03-25T08:42:47;22.60;40.00
6540;DHT22;50344;51.142;16.892;2024-03-25T08:45:13;22.60;40.00
6540;DHT22;50344;51.142;16.892;2024-03-25T08:47:38;22.60;40.00
6540;DHT22;50344;51.142;16.892;2024-03-25T08:50:05;22.60;39.90
6540;DHT22;50344;51.142;16.892;2024-03-25T08:52:32;22.60;39.90
6540;DHT22;50344;51.142;16.892;2024-03-25T08:54:57;22.60;39.90
6540;DHT22;50344;51.142;16.892;2024-03-25T08:57:23;22.60;39.80
6540;DHT22;50344;51.142;16.892;2024-03-25T08:59:48;22.60;40.00
6540;DHT22;50344;51.142;16.892;2024-03-25T09:02:14;22.60;39.80
6540;DHT22;50344;51.142;16.892;2024-03-25T09:04:39;22.60;39.70
6540;DHT22;50344;51.142;16.892;2024-03-25T09:07:05;22.60;39.70
6540;DHT22;50344;51.142;16.892;2024-03-25T09:09:30;22.60;39.70
6540;DHT22;50344;51.142;16.892;2024-03-25T09:12:14;22.60;39.60
6540;DHT22;50344;51.142;16.892;2024-03-25T09:14:40;22.60;39.60
6540;DHT22;50344;51.142;16.892;2024-03-25T09:17:05;22.60;39.50
6540;DHT22;50344;51.142;16.892;2024-03-25T09:19:31;22.60;39.40
6540;DHT22;50344;51.142;16.892;2024-03-25T09:21:56;22.60;39.40
6540;DHT22;50344;51.142;16.892;2024-03-25T09:24:22;22.60;39.40
6540;DHT22;50344;51.142;16.892;2024-03-25T09:26:51;22.60;39.30
6540;DHT22;50344;51.142;16.892;2024-03-25T09:29:16;22.60;39.30
6540;DHT22;50344;51.142;16.892;2024-03-25T09:31:42;22.60;39.30
6540;DHT22;50344;51.142;16.892;2024-03-25T09:34:08;22.60;39.30
6540;DHT22;50344;51.142;16.892;2024-03-25T09:36:33;22.50;39.10
6540;DHT22;50344;51.142;16.892;2024-03-25T09:38:59;22.60;39.20
6540;DHT22;50344;51.142;16.892;2024-03-25T09:41:24;22.60;39.20
6540;DHT22;50344;51.142;16.892;2024-03-25T09:43:56;22.60;39.20
6540;DHT22;50344;51.142;16.892;2024-03-25T09:46:25;22.60;39.00
6540;DHT22;50344;51.142;16.892;2024-03-25T09:48:54;22.60;39.00
6540;DHT22;50344;51.142;16.892;2024-03-25T09:51:20;22.60;38.90
6540;DHT22;50344;51.142;16.892;2024-03-25T09:53:46;22.60;38.90
6540;DHT22;50344;51.142;16.892;2024-03-25T09:56:12;22.60;38.90
6540;DHT22;50344;51.142;16.892;2024-03-25T09:58:37;22.60;38.80
6540;DHT22;50344;51.142;16.892;2024-03-25T10:01:03;22.60;38.80
6540;DHT22;50344;51.142;16.892;2024-03-25T10:03:29;22.60;38.70
6540;DHT22;50344;51.142;16.892;2024-03-25T10:05:54;22.60;38.80
6540;DHT22;50344;51.142;16.892;2024-03-25T10:08:23;22.60;38.60
6540;DHT22;50344;51.142;16.892;2024-03-25T10:10:51;22.60;38.60
6540;DHT22;50344;51.142;16.892;2024-03-25T10:13:17;22.60;38.50
6540;DHT22;50344;51.142;16.892;2024-03-25T10:15:42;22.60;38.60
6540;DHT22;50344;51.142;16.892;2024-03-25T10:18:11;22.60;38.40
6540;DHT22;50344;51.142;16.892;2024-03-25T10:20:36;22.60;38.50
6540;DHT22;50344;51.142;16.892;2024-03-25T10:23:02;22.60;38.40
6540;DHT22;50344;51.142;16.892;2024-03-25T10:25:30;22.60;38.30
6540;DHT22;50344;51.142;16.892;2024-03-25T10:27:59;22.60;38.30
6540;DHT22;50344;51.142;16.892;2024-03-25T10:30:26;22.60;38.20
6540;DHT22;50344;51.142;16.892;2024-03-25T10:32:58;22.60;38.30
6540;DHT22;50344;51.142;16.892;2024-03-25T10:35:25;22.60;38.00
6540;DHT22;50344;51.142;16.892;2024-03-25T10:37:51;22.60;38.00
6540;DHT22;50344;51.142;16.892;2024-03-25T10:40:18;22.60;38.00
6540;DHT22;50344;51.142;16.892;2024-03-25T10:42:43;22.60;38.10
6540;DHT22;50344;51.142;16.892;2024-03-25T10:45:10;22.70;38.10
6540;DHT22;50344;51.142;16.892;2024-03-25T10:47:36;22.70;38.10
6540;DHT22;50344;51.142;16.892;2024-03-25T10:50:05;22.70;38.10
6540;DHT22;50344;51.142;16.892;2024-03-25T10:52:32;22.70;38.10
6540;DHT22;50344;51.142;16.892;2024-03-25T10:54:58;22.70;38.10
6540;DHT22;50344;51.142;16.892;2024-03-25T10:57:24;22.70;38.10
6540;DHT22;50344;51.142;16.892;2024-03-25T10:59:51;22.70;38.10
6540;DHT22;50344;51.142;16.892;2024-03-25T11:02:17;22.70;38.10
6540;DHT22;50344;51.142;16.892;2024-03-25T11:04:45;22.70;38.10
6540;DHT22;50344;51.142;16.892;2024-03-25T11:07:13;22.70;38.80
6540;DHT22;50344;51.142;16.892;2024-03-25T11:09:39;22.80;38.20
6540;DHT22;50344;51.142;16.892;2024-03-25T11:12:05;22.80;38.20
6540;DHT22;50344;51.142;16.892;2024-03-25T11:14:30;22.80;38.20
6540;DHT22;50344;51.142;16.892;2024-03-25T11:16:57;22.90;38.30
6540;DHT22;50344;51.142;16.892;2024-03-25T11:19:26;22.90;38.00
6540;DHT22;50344;51.142;16.892;2024-03-25T11:21:52;22.90;38.10
6540;DHT22;50344;51.142;16.892;2024-03-25T11:24:27;22.90;37.60
6540;DHT22;50344;51.142;16.892;2024-03-25T11:26:53;22.90;37.50
6540;DHT22;50344;51.142;16.892;2024-03-25T11:29:19;22.90;37.40
6540;DHT22;50344;51.142;16.892;2024-03-25T11:31:44;22.90;37.30
6540;DHT22;50344;51.142;16.892;2024-03-25T11:34:10;22.90;37.40
6540;DHT22;50344;51.142;16.892;2024-03-25T11:36:35;22.90;37.30
6540;DHT22;50344;51.142;16.892;2024-03-25T11:39:01;22.80;37.30
6540;DHT22;50344;51.142;16.892;2024-03-25T11:41:30;22.80;37.30
6540;DHT22;50344;51.142;16.892;2024-03-25T11:43:55;22.80;37.40
6540;DHT22;50344;51.142;16.892;2024-03-25T11:46:24;22.80;37.60
6540;DHT22;50344;51.142;16.892;2024-03-25T11:48:49;22.80;37.50
6540;DHT22;50344;51.142;16.892;2024-03-25T11:51:19;22.90;37.50
6540;DHT22;50344;51.142;16.892;2024-03-25T11:53:44;22.90;37.40
6540;DHT22;50344;51.142;16.892;2024-03-25T11:56:13;23.00;37.20
6540;DHT22;50344;51.142;16.892;2024-03-25T11:58:39;23.00;37.20
6540;DHT22;50344;51.142;16.892;2024-03-25T12:01:04;23.00;37.00
6540;DHT22;50344;51.142;16.892;2024-03-25T12:03:30;23.10;37.10
6540;DHT22;50344;51.142;16.892;2024-03-25T12:05:56;23.10;37.00
6540;DHT22;50344;51.142;16.892;2024-03-25T12:08:22;23.10;37.00
6540;DHT22;50344;51.142;16.892;2024-03-25T12:10:51;23.10;37.00
6540;DHT22;50344;51.142;16.892;2024-03-25T12:13:35;23.10;36.90
6540;DHT22;50344;51.142;16.892;2024-03-25T12:16:01;23.10;37.00
6540;DHT22;50344;51.142;16.892;2024-03-25T12:18:28;23.10;37.00
6540;DHT22;50344;51.142;16.892;2024-03-25T12:20:56;23.10;37.00
6540;DHT22;50344;51.142;16.892;2024-03-25T12:23:22;23.10;37.00
6540;DHT22;50344;51.142;16.892;2024-03-25T12:25:50;23.10;36.80
6540;DHT22;50344;51.142;16.892;2024-03-25T12:28:16;23.10;36.80
6540;DHT22;50344;51.142;16.892;2024-03-25T12:30:54;23.10;36.80
6540;DHT22;50344;51.142;16.892;2024-03-25T12:33:22;23.10;37.50
6540;DHT22;50344;51.142;16.892;2024-03-25T12:35:48;23.10;36.80
6540;DHT22;50344;51.142;16.892;2024-03-25T12:38:24;23.10;36.80
6540;DHT22;50344;51.142;16.892;2024-03-25T12:40:49;23.10;36.80
6540;DHT22;50344;51.142;16.892;2024-03-25T12:43:15;23.10;36.70
6540;DHT22;50344;51.142;16.892;2024-03-25T12:45:41;23.20;36.80
6540;DHT22;50344;51.142;16.892;2024-03-25T12:48:08;23.20;36.80
6540;DHT22;50344;51.142;16.892;2024-03-25T12:50:34;23.10;36.70
6540;DHT22;50344;51.142;16.892;2024-03-25T12:52:59;23.20;36.80
6540;DHT22;50344;51.142;16.892;2024-03-25T12:55:25;23.20;36.80
6540;DHT22;50344;51.142;16.892;2024-03-25T12:57:50;23.20;36.70
6540;DHT22;50344;51.142;16.892;2024-03-25T13:00:16;23.20;36.80
6540;DHT22;50344;51.142;16.892;2024-03-25T13:02:42;23.20;36.80
6540;DHT22;50344;51.142;16.892;2024-03-25T13:05:07;23.20;36.80
6540;DHT22;50344;51.142;16.892;2024-03-25T13:07:33;23.20;36.60
6540;DHT22;50344;51.142;16.892;2024-03-25T13:09:58;23.10;36.50
6540;DHT22;50344;51.142;16.892;2024-03-25T13:12:24;23.20;36.50
6540;DHT22;50344;51.142;16.892;2024-03-25T13:14:49;23.10;36.50
6540;DHT22;50344;51.142;16.892;2024-03-25T13:17:15;23.20;36.50
6540;DHT22;50344;51.142;16.892;2024-03-25T13:19:40;23.20;36.50
6540;DHT22;50344;51.142;16.892;2024-03-25T13:22:06;23.20;36.60
6540;DHT22;50344;51.142;16.892;2024-03-25T13:24:32;23.20;36.70
6540;DHT22;50344;51.142;16.892;2024-03-25T13:26:57;23.20;36.60
6540;DHT22;50344;51.142;16.892;2024-03-25T13:29:22;23.20;36.70
6540;DHT22;50344;51.142;16.892;2024-03-25T13:31:48;23.20;36.50
6540;DHT22;50344;51.142;16.892;2024-03-25T13:34:13;23.20;36.50
6540;DHT22;50344;51.142;16.892;2024-03-25T13:36:39;23.20;36.50
6540;DHT22;50344;51.142;16.892;2024-03-25T13:39:04;23.20;36.60
6540;DHT22;50344;51.142;16.892;2024-03-25T13:41:30;23.20;36.60
6540;DHT22;50344;51.142;16.892;2024-03-25T13:43:56;23.10;36.60
6540;DHT22;50344;51.142;16.892;2024-03-25T13:46:21;23.20;36.60
6540;DHT22;50344;51.142;16.892;2024-03-25T13:48:47;23.10;36.40
6540;DHT22;50344;51.142;16.892;2024-03-25T13:51:12;23.10;37.20
6540;DHT22;50344;51.142;16.892;2024-03-25T13:53:38;23.20;36.60
6540;DHT22;50344;51.142;16.892;2024-03-25T13:56:05;23.20;36.60
6540;DHT22;50344;51.142;16.892;2024-03-25T13:58:31;23.10;36.60
6540;DHT22;50344;51.142;16.892;2024-03-25T14:00:56;23.10;36.70
6540;DHT22;50344;51.142;16.892;2024-03-25T14:03:22;23.10;36.70
6540;DHT22;50344;51.142;16.892;2024-03-25T14:05:48;23.10;36.70
6540;DHT22;50344;51.142;16.892;2024-03-25T14:08:13;23.10;36.70
6540;DHT22;50344;51.142;16.892;2024-03-25T14:10:39;23.00;36.50
6540;DHT22;50344;51.142;16.892;2024-03-25T14:13:04;23.00;36.70
6540;DHT22;50344;51.142;16.892;2024-03-25T14:15:31;23.00;36.70
6540;DHT22;50344;51.142;16.892;2024-03-25T14:17:56;23.00;36.60
6540;DHT22;50344;51.142;16.892;2024-03-25T14:20:22;23.00;36.70
6540;DHT22;50344;51.142;16.892;2024-03-25T14:22:48;22.90;36.50
6540;DHT22;50344;51.142;16.892;2024-03-25T14:25:13;23.00;36.70
6540;DHT22;50344;51.142;16.892;2024-03-25T14:27:40;22.90;36.60
6540;DHT22;50344;51.142;16.892;2024-03-25T14:30:06;23.00;36.70
6540;DHT22;50344;51.142;16.892;2024-03-25T14:32:32;22.90;36.60
6540;DHT22;50344;51.142;16.892;2024-03-25T14:34:58;22.90;36.60
6540;DHT22;50344;51.142;16.892;2024-03-25T14:37:24;22.90;36.60
6540;DHT22;50344;51.142;16.892;2024-03-25T14:39:49;22.90;36.70
6540;DHT22;50344;51.142;16.892;2024-03-25T14:42:15;22.90;36.70
6540;DHT22;50344;51.142;16.892;2024-03-25T14:44:40;22.90;36.60
6540;DHT22;50344;51.142;16.892;2024-03-25T14:47:06;22.90;36.60
6540;DHT22;50344;51.142;16.892;2024-03-25T14:49:31;22.90;36.60
6540;DHT22;50344;51.142;16.892;2024-03-25T14:51:57;22.90;36.60
6540;DHT22;50344;51.142;16.892;2024-03-25T14:54:22;22.90;36.60
6540;DHT22;50344;51.142;16.892;2024-03-25T14:56:48;22.90;36.50
6540;DHT22;50344;51.142;16.892;2024-03-25T14:59:14;22.90;36.60
6540;DHT22;50344;51.142;16.892;2024-03-25T15:01:40;22.90;36.40
6540;DHT22;50344;51.142;16.892;2024-03-25T15:04:05;22.90;36.50
6540;DHT22;50344;51.142;16.892;2024-03-25T15:06:31;22.90;37.20
6540;DHT22;50344;51.142;16.892;2024-03-25T15:08:58;22.90;36.40
6540;DHT22;50344;51.142;16.892;2024-03-25T15:11:23;22.90;36.30
6540;DHT22;50344;51.142;16.892;2024-03-25T15:13:50;22.90;36.40
6540;DHT22;50344;51.142;16.892;2024-03-25T15:16:16;22.90;36.40
6540;DHT22;50344;51.142;16.892;2024-03-25T15:18:42;22.90;36.40
6540;DHT22;50344;51.142;16.892;2024-03-25T15:21:07;22.80;36.30
6540;DHT22;50344;51.142;16.892;2024-03-25T15:23:33;22.90;36.50